sensor_id;sensor_type;location;lat;lon;timestamp;temperature;humidity
42617;DHT22;28250;52.320;0.360;2023-08-06T00:01:19;11.50;99.90
42617;DHT22;28250;52.320;0.360;2023-08-06T00:03:46;11.50;99.90
42617;DHT22;28250;52.320;0.360;2023-08-06T00:06:12;11.50;99.90
42617;DHT22;28250;52.320;0.360;2023-08-06T00:08:38;11.50;99.90
42617;DHT22;28250;52.320;0.360;2023-08-06T00:11:04;11.50;99.90
42617;DHT22;28250;52.320;0.360;2023-08-06T00:13:30;11.50;99.90
42617;DHT22;28250;52.320;0.360;2023-08-06T00:16:08;11.50;99.90
42617;DHT22;28250;52.320;0.360;2023-08-06T00:18:38;11.50;99.90
42617;DHT22;28250;52.320;0.360;2023-08-06T00:21:05;11.50;99.90
42617;DHT22;28250;52.320;0.360;2023-08-06T00:23:31;11.50;99.90
42617;DHT22;28250;52.320;0.360;2023-08-06T00:25:57;11.40;99.90
42617;DHT22;28250;52.320;0.360;2023-08-06T00:28:23;11.40;99.90
42617;DHT22;28250;52.320;0.360;2023-08-06T00:30:56;11.50;99.90
42617;DHT22;28250;52.320;0.360;2023-08-06T00:33:23;11.40;99.90
42617;DHT22;28250;52.320;0.360;2023-08-06T00:35:49;11.40;99.90
42617;DHT22;28250;52.320;0.360;2023-08-06T00:38:15;11.40;99.90
42617;DHT22;28250;52.320;0.360;2023-08-06T00:40:42;11.40;99.90
42617;DHT22;28250;52.320;0.360;2023-08-06T00:43:08;11.40;99.90
42617;DHT22;28250;52.320;0.360;2023-08-06T00:45:37;11.40;99.90
42617;DHT22;28250;52.320;0.360;2023-08-06T00:48:05;11.40;99.90
42617;DHT22;28250;52.320;0.360;2023-08-06T00:50:32;11.50;99.90
42617;DHT22;28250;52.320;0.360;2023-08-06T00:52:59;11.40;99.90
42617;DHT22;28250;52.320;0.360;2023-08-06T00:55:25;11.50;99.90
42617;DHT22;28250;52.320;0.360;2023-08-06T00:57:51;11.40;99.90
42617;DHT22;28250;52.320;0.360;2023-08-06T01:00:22;11.40;99.90
42617;DHT22;28250;52.320;0.360;2023-08-06T01:02:50;11.40;99.90
42617;DHT22;28250;52.320;0.360;2023-08-06T01:05:16;11.40;99.90
42617;DHT22;28250;52.320;0.360;2023-08-06T01:13:46;11.30;99.90
42617;DHT22;28250;52.320;0.360;2023-08-06T01:16:16;11.30;99.90
42617;DHT22;28250;52.320;0.360;2023-08-06T01:18:43;11.30;99.90
42617;DHT22;28250;52.320;0.360;2023-08-06T01:21:13;11.30;99.90
42617;DHT22;28250;52.320;0.360;2023-08-06T01:23:39;11.30;99.90
42617;DHT22;28250;52.320;0.360;2023-08-06T01:31:48;11.20;99.90
42617;DHT22;28250;52.320;0.360;2023-08-06T01:34:24;11.20;99.90
42617;DHT22;28250;52.320;0.360;2023-08-06T01:36:54;11.20;99.90
42617;DHT22;28250;52.320;0.360;2023-08-06T01:39:20;11.20;99.90
42617;DHT22;28250;52.320;0.360;2023-08-06T01:41:47;11.10;99.90
42617;DHT22;28250;52.320;0.360;2023-08-06T01:44:14;11.10;99.90
42617;DHT22;28250;52.320;0.360;2023-08-06T01:46:41;11.00;99.90
42617;DHT22;28250;52.320;0.360;2023-08-06T01:49:07;11.00;99.90
42617;DHT22;28250;52.320;0.360;2023-08-06T01:51:33;11.00;99.90
42617;DHT22;28250;52.320;0.360;2023-08-06T01:53:59;10.90;99.90
42617;DHT22;28250;52.320;0.360;2023-08-06T01:56:25;10.90;99.90
42617;DHT22;28250;52.320;0.360;2023-08-06T01:58:51;10.90;99.90
42617;DHT22;28250;52.320;0.360;2023-08-06T02:01:17;10.90;99.90
42617;DHT22;28250;52.320;0.360;2023-08-06T02:03:44;10.80;99.90
42617;DHT22;28250;52.320;0.360;2023-08-06T02:06:10;10.80;99.90
42617;DHT22;28250;52.320;0.360;2023-08-06T02:08:36;10.80;99.90
42617;DHT22;28250;52.320;0.360;2023-08-06T02:11:02;10.70;99.90
42617;DHT22;28250;52.320;0.360;2023-08-06T02:13:30;10.70;99.90
42617;DHT22;28250;52.320;0.360;2023-08-06T02:15:56;10.70;99.90
42617;DHT22;28250;52.320;0.360;2023-08-06T02:18:22;10.70;99.90
42617;DHT22;28250;52.320;0.360;2023-08-06T02:20:58;10.60;99.90
42617;DHT22;28250;52.320;0.360;2023-08-06T02:23:25;10.60;99.90
42617;DHT22;28250;52.320;0.360;2023-08-06T02:26:02;10.60;99.90
42617;DHT22;28250;52.320;0.360;2023-08-06T02:28:29;10.50;99.90
42617;DHT22;28250;52.320;0.360;2023-08-06T02:30:56;10.50;99.90
42617;DHT22;28250;52.320;0.360;2023-08-06T02:33:22;10.60;99.90
42617;DHT22;28250;52.320;0.360;2023-08-06T02:35:48;10.50;99.90
42617;DHT22;28250;52.320;0.360;2023-08-06T02:38:14;10.50;99.90
42617;DHT22;28250;52.320;0.360;2023-08-06T02:40:45;10.50;99.90
42617;DHT22;28250;52.320;0.360;2023-08-06T02:43:14;10.50;99.90
42617;DHT22;28250;52.320;0.360;2023-08-06T02:45:41;10.50;99.90
42617;DHT22;28250;52.320;0.360;2023-08-06T02:48:07;10.50;99.90
42617;DHT22;28250;52.320;0.360;2023-08-06T02:50:40;10.50;99.90
42617;DHT22;28250;52.320;0.360;2023-08-06T02:53:10;10.50;99.90
42617;DHT22;28250;52.320;0.360;2023-08-06T02:55:37;10.50;99.90
42617;DHT22;28250;52.320;0.360;2023-08-06T02:58:08;10.50;99.90
42617;DHT22;28250;52.320;0.360;2023-08-06T03:00:38;10.50;99.90
42617;DHT22;28250;52.320;0.360;2023-08-06T03:03:06;10.50;99.90
42617;DHT22;28250;52.320;0.360;2023-08-06T03:05:40;10.50;99.90
42617;DHT22;28250;52.320;0.360;2023-08-06T03:08:06;10.50;99.90
42617;DHT22;28250;52.320;0.360;2023-08-06T03:10:35;10.60;99.90
42617;DHT22;28250;52.320;0.360;2023-08-06T03:13:03;10.60;99.90
42617;DHT22;28250;52.320;0.360;2023-08-06T03:15:29;10.60;99.90
42617;DHT22;28250;52.320;0.360;2023-08-06T03:17:56;10.60;99.90
42617;DHT22;28250;52.320;0.360;2023-08-06T03:20:22;10.60;99.90
42617;DHT22;28250;52.320;0.360;2023-08-06T03:22:49;10.60;99.90
42617;DHT22;28250;52.320;0.360;2023-08-06T03:25:16;10.70;99.90
42617;DHT22;28250;52.320;0.360;2023-08-06T03:27:45;10.70;99.90
42617;DHT22;28250;52.320;0.360;2023-08-06T03:30:12;10.70;99.90
42617;DHT22;28250;52.320;0.360;2023-08-06T03:32:39;10.70;99.90
42617;DHT22;28250;52.320;0.360;2023-08-06T03:35:07;10.70;99.90
42617;DHT22;28250;52.320;0.360;2023-08-06T03:37:33;10.70;99.90
42617;DHT22;28250;52.320;0.360;2023-08-06T03:39:59;10.80;99.90
42617;DHT22;28250;52.320;0.360;2023-08-06T03:42:25;10.80;99.90
42617;DHT22;28250;52.320;0.360;2023-08-06T03:44:51;10.70;99.90
42617;DHT22;28250;52.320;0.360;2023-08-06T03:47:17;10.70;99.90
42617;DHT22;28250;52.320;0.360;2023-08-06T03:49:44;10.60;99.90
42617;DHT22;28250;52.320;0.360;2023-08-06T03:52:11;10.60;99.90
42617;DHT22;28250;52.320;0.360;2023-08-06T03:54:37;10.50;99.90
42617;DHT22;28250;52.320;0.360;2023-08-06T03:57:04;10.40;99.90
42617;DHT22;28250;52.320;0.360;2023-08-06T03:59:31;10.30;99.90
42617;DHT22;28250;52.320;0.360;2023-08-06T04:01:57;10.20;99.90
42617;DHT22;28250;52.320;0.360;2023-08-06T04:04:23;10.20;99.90
42617;DHT22;28250;52.320;0.360;2023-08-06T04:06:49;10.10;99.90
42617;DHT22;28250;52.320;0.360;2023-08-06T04:09:15;10.10;99.90
42617;DHT22;28250;52.320;0.360;2023-08-06T04:11:41;10.00;99.90
42617;DHT22;28250;52.320;0.360;2023-08-06T04:14:08;10.00;99.90
42617;DHT22;28250;52.320;0.360;2023-08-06T04:16:34;9.90;99.90
42617;DHT22;28250;52.320;0.360;2023-08-06T04:19:01;9.90;99.90
42617;DHT22;28250;52.320;0.360;2023-08-06T04:21:27;9.90;99.90
42617;DHT22;28250;52.320;0.360;2023-08-06T04:23:53;9.80;99.90
42617;DHT22;28250;52.320;0.360;2023-08-06T04:26:19;9.80;99.90
42617;DHT22;28250;52.320;0.360;2023-08-06T04:28:45;9.80;99.90
42617;DHT22;28250;52.320;0.360;2023-08-06T04:31:11;9.80;99.90
42617;DHT22;28250;52.320;0.360;2023-08-06T04:33:39;9.80;99.90
42617;DHT22;28250;52.320;0.360;2023-08-06T04:36:09;9.80;99.90
42617;DHT22;28250;52.320;0.360;2023-08-06T04:38:35;9.80;99.90
42617;DHT22;28250;52.320;0.360;2023-08-06T04:41:04;9.80;99.90
42617;DHT22;28250;52.320;0.360;2023-08-06T04:43:31;9.80;99.90
42617;DHT22;28250;52.320;0.360;2023-08-06T04:45:56;9.80;99.90
42617;DHT22;28250;52.320;0.360;2023-08-06T04:48:23;9.80;99.90
42617;DHT22;28250;52.320;0.360;2023-08-06T04:50:50;9.80;99.90
42617;DHT22;28250;52.320;0.360;2023-08-06T04:53:16;9.80;99.90
42617;DHT22;28250;52.320;0.360;2023-08-06T04:55:42;9.80;99.90
42617;DHT22;28250;52.320;0.360;2023-08-06T04:58:12;9.80;99.90
42617;DHT22;28250;52.320;0.360;2023-08-06T05:00:39;9.80;99.90
42617;DHT22;28250;52.320;0.360;2023-08-06T05:03:06;9.80;99.90
42617;DHT22;28250;52.320;0.360;2023-08-06T05:05:36;9.90;99.90
42617;DHT22;28250;52.320;0.360;2023-08-06T05:08:02;9.90;99.90
42617;DHT22;28250;52.320;0.360;2023-08-06T05:10:28;9.90;99.90
42617;DHT22;28250;52.320;0.360;2023-08-06T05:12:54;9.90;99.90
42617;DHT22;28250;52.320;0.360;2023-08-06T05:15:20;10.00;99.90
42617;DHT22;28250;52.320;0.360;2023-08-06T05:17:46;10.00;99.90
42617;DHT22;28250;52.320;0.360;2023-08-06T05:20:12;10.00;99.90
42617;DHT22;28250;52.320;0.360;2023-08-06T05:22:38;10.00;99.90
42617;DHT22;28250;52.320;0.360;2023-08-06T05:25:05;10.00;99.90
42617;DHT22;28250;52.320;0.360;2023-08-06T05:27:32;10.00;99.90
42617;DHT22;28250;52.320;0.360;2023-08-06T05:29:58;10.00;99.90
42617;DHT22;28250;52.320;0.360;2023-08-06T05:32:24;10.00;99.90
42617;DHT22;28250;52.320;0.360;2023-08-06T05:34:50;10.00;99.90
42617;DHT22;28250;52.320;0.360;2023-08-06T05:37:16;10.00;99.90
42617;DHT22;28250;52.320;0.360;2023-08-06T05:39:42;10.00;99.90
42617;DHT22;28250;52.320;0.360;2023-08-06T05:42:08;10.00;99.90
42617;DHT22;28250;52.320;0.360;2023-08-06T05:44:34;10.00;99.90
42617;DHT22;28250;52.320;0.360;2023-08-06T05:47:00;10.00;99.90
42617;DHT22;28250;52.320;0.360;2023-08-06T05:49:26;10.10;99.90
42617;DHT22;28250;52.320;0.360;2023-08-06T05:51:52;10.10;99.90
42617;DHT22;28250;52.320;0.360;2023-08-06T05:54:20;10.20;99.90
42617;DHT22;28250;52.320;0.360;2023-08-06T05:56:46;10.20;99.90
42617;DHT22;28250;52.320;0.360;2023-08-06T05:59:12;10.20;99.90
42617;DHT22;28250;52.320;0.360;2023-08-06T06:01:38;10.30;99.90
42617;DHT22;28250;52.320;0.360;2023-08-06T06:04:04;10.40;99.90
42617;DHT22;28250;52.320;0.360;2023-08-06T06:06:30;10.50;99.90
42617;DHT22;28250;52.320;0.360;2023-08-06T06:08:56;10.50;99.90
42617;DHT22;28250;52.320;0.360;2023-08-06T06:11:22;10.60;99.90
42617;DHT22;28250;52.320;0.360;2023-08-06T06:13:50;10.70;99.90
42617;DHT22;28250;52.320;0.360;2023-08-06T06:16:16;10.80;99.90
42617;DHT22;28250;52.320;0.360;2023-08-06T06:18:42;10.90;99.90
42617;DHT22;28250;52.320;0.360;2023-08-06T06:21:10;11.00;99.90
42617;DHT22;28250;52.320;0.360;2023-08-06T06:23:36;11.30;99.90
42617;DHT22;28250;52.320;0.360;2023-08-06T06:26:02;11.80;99.90
42617;DHT22;28250;52.320;0.360;2023-08-06T06:28:28;12.10;99.90
42617;DHT22;28250;52.320;0.360;2023-08-06T06:31:00;12.50;99.90
42617;DHT22;28250;52.320;0.360;2023-08-06T06:33:27;12.70;99.90
42617;DHT22;28250;52.320;0.360;2023-08-06T06:35:53;13.10;99.90
42617;DHT22;28250;52.320;0.360;2023-08-06T06:38:19;13.50;99.90
42617;DHT22;28250;52.320;0.360;2023-08-06T06:40:54;13.70;99.90
42617;DHT22;28250;52.320;0.360;2023-08-06T06:43:24;14.20;99.90
42617;DHT22;28250;52.320;0.360;2023-08-06T06:45:57;14.90;99.90
42617;DHT22;28250;52.320;0.360;2023-08-06T06:48:27;14.30;99.90
42617;DHT22;28250;52.320;0.360;2023-08-06T06:50:55;14.60;99.90
42617;DHT22;28250;52.320;0.360;2023-08-06T06:53:21;14.70;99.90
42617;DHT22;28250;52.320;0.360;2023-08-06T06:56:02;14.70;99.90
42617;DHT22;28250;52.320;0.360;2023-08-06T06:58:30;14.90;99.90
42617;DHT22;28250;52.320;0.360;2023-08-06T07:00:57;14.60;99.90
42617;DHT22;28250;52.320;0.360;2023-08-06T07:03:23;14.50;99.90
42617;DHT22;28250;52.320;0.360;2023-08-06T07:05:49;14.60;99.90
42617;DHT22;28250;52.320;0.360;2023-08-06T07:08:16;14.50;99.90
42617;DHT22;28250;52.320;0.360;2023-08-06T07:10:42;14.60;99.90
42617;DHT22;28250;52.320;0.360;2023-08-06T07:13:09;14.50;99.90
42617;DHT22;28250;52.320;0.360;2023-08-06T07:15:35;14.40;99.90
42617;DHT22;28250;52.320;0.360;2023-08-06T07:18:01;14.50;99.90
42617;DHT22;28250;52.320;0.360;2023-08-06T07:20:27;14.40;99.90
42617;DHT22;28250;52.320;0.360;2023-08-06T07:22:58;14.70;99.90
42617;DHT22;28250;52.320;0.360;2023-08-06T07:25:24;14.60;99.90
42617;DHT22;28250;52.320;0.360;2023-08-06T07:27:50;14.40;99.90
42617;DHT22;28250;52.320;0.360;2023-08-06T07:30:16;14.30;99.90
42617;DHT22;28250;52.320;0.360;2023-08-06T07:32:42;14.60;99.90
42617;DHT22;28250;52.320;0.360;2023-08-06T07:35:08;14.60;99.90
42617;DHT22;28250;52.320;0.360;2023-08-06T07:37:38;14.20;99.90
42617;DHT22;28250;52.320;0.360;2023-08-06T07:40:05;14.20;99.90
42617;DHT22;28250;52.320;0.360;2023-08-06T07:42:31;14.30;99.90
42617;DHT22;28250;52.320;0.360;2023-08-06T07:44:58;14.10;99.90
42617;DHT22;28250;52.320;0.360;2023-08-06T07:47:24;14.40;99.90
42617;DHT22;28250;52.320;0.360;2023-08-06T07:49:50;14.20;99.90
42617;DHT22;28250;52.320;0.360;2023-08-06T07:52:16;13.90;99.90
42617;DHT22;28250;52.320;0.360;2023-08-06T07:54:42;13.90;99.90
42617;DHT22;28250;52.320;0.360;2023-08-06T07:57:08;13.90;99.90
42617;DHT22;28250;52.320;0.360;2023-08-06T07:59:35;13.90;99.90
42617;DHT22;28250;52.320;0.360;2023-08-06T08:02:01;14.00;99.90
42617;DHT22;28250;52.320;0.360;2023-08-06T08:04:27;14.30;99.90
42617;DHT22;28250;52.320;0.360;2023-08-06T08:06:53;14.20;99.90
42617;DHT22;28250;52.320;0.360;2023-08-06T08:09:19;14.20;99.90
42617;DHT22;28250;52.320;0.360;2023-08-06T08:11:45;14.20;99.90
42617;DHT22;28250;52.320;0.360;2023-08-06T08:14:12;14.20;99.90
42617;DHT22;28250;52.320;0.360;2023-08-06T08:16:38;14.20;99.90
42617;DHT22;28250;52.320;0.360;2023-08-06T08:19:04;14.10;99.90
42617;DHT22;28250;52.320;0.360;2023-08-06T08:21:30;14.20;99.90
42617;DHT22;28250;52.320;0.360;2023-08-06T08:23:56;14.20;99.90
42617;DHT22;28250;52.320;0.360;2023-08-06T08:26:22;14.30;99.90
42617;DHT22;28250;52.320;0.360;2023-08-06T08:28:49;14.40;99.90
42617;DHT22;28250;52.320;0.360;2023-08-06T08:31:15;14.40;99.90
42617;DHT22;28250;52.320;0.360;2023-08-06T08:33:42;14.60;99.90
42617;DHT22;28250;52.320;0.360;2023-08-06T08:36:08;14.40;99.90
42617;DHT22;28250;52.320;0.360;2023-08-06T08:38:35;14.70;99.90
42617;DHT22;28250;52.320;0.360;2023-08-06T08:41:01;14.80;99.90
42617;DHT22;28250;52.320;0.360;2023-08-06T08:43:27;15.00;99.90
42617;DHT22;28250;52.320;0.360;2023-08-06T08:45:55;14.90;99.90
42617;DHT22;28250;52.320;0.360;2023-08-06T08:48:24;14.90;99.90
42617;DHT22;28250;52.320;0.360;2023-08-06T08:50:52;14.90;99.90
42617;DHT22;28250;52.320;0.360;2023-08-06T08:53:19;14.90;99.90
42617;DHT22;28250;52.320;0.360;2023-08-06T08:55:48;14.90;99.90
42617;DHT22;28250;52.320;0.360;2023-08-06T08:58:15;14.90;99.90
42617;DHT22;28250;52.320;0.360;2023-08-06T09:00:43;14.90;99.90
42617;DHT22;28250;52.320;0.360;2023-08-06T09:03:11;15.00;99.90
42617;DHT22;28250;52.320;0.360;2023-08-06T09:05:40;15.20;99.90
42617;DHT22;28250;52.320;0.360;2023-08-06T09:08:11;15.10;99.90
42617;DHT22;28250;52.320;0.360;2023-08-06T09:10:43;15.30;99.90
42617;DHT22;28250;52.320;0.360;2023-08-06T09:13:09;15.20;99.90
42617;DHT22;28250;52.320;0.360;2023-08-06T09:15:38;15.20;99.90
42617;DHT22;28250;52.320;0.360;2023-08-06T09:18:11;15.20;99.90
42617;DHT22;28250;52.320;0.360;2023-08-06T09:20:38;15.10;99.90
42617;DHT22;28250;52.320;0.360;2023-08-06T09:23:08;15.40;99.90
42617;DHT22;28250;52.320;0.360;2023-08-06T09:25:39;15.50;99.90
42617;DHT22;28250;52.320;0.360;2023-08-06T09:28:08;15.50;99.90
42617;DHT22;28250;52.320;0.360;2023-08-06T09:30:36;15.60;99.90
42617;DHT22;28250;52.320;0.360;2023-08-06T09:33:03;15.80;99.90
42617;DHT22;28250;52.320;0.360;2023-08-06T09:35:36;15.90;99.90
42617;DHT22;28250;52.320;0.360;2023-08-06T09:38:08;16.00;99.90
42617;DHT22;28250;52.320;0.360;2023-08-06T09:40:36;16.10;99.90
42617;DHT22;28250;52.320;0.360;2023-08-06T09:43:04;16.00;99.90
42617;DHT22;28250;52.320;0.360;2023-08-06T09:45:32;16.00;99.90
42617;DHT22;28250;52.320;0.360;2023-08-06T09:48:06;15.70;99.90
42617;DHT22;28250;52.320;0.360;2023-08-06T09:50:35;15.40;99.90
42617;DHT22;28250;52.320;0.360;2023-08-06T09:53:04;15.90;99.90
42617;DHT22;28250;52.320;0.360;2023-08-06T09:55:30;16.00;99.90
42617;DHT22;28250;52.320;0.360;2023-08-06T09:57:58;16.50;99.90
42617;DHT22;28250;52.320;0.360;2023-08-06T10:00:25;16.70;99.90
42617;DHT22;28250;52.320;0.360;2023-08-06T10:02:53;16.80;99.90
42617;DHT22;28250;52.320;0.360;2023-08-06T10:05:22;16.90;99.90
42617;DHT22;28250;52.320;0.360;2023-08-06T10:07:49;17.20;99.90
42617;DHT22;28250;52.320;0.360;2023-08-06T10:10:18;17.20;99.90
42617;DHT22;28250;52.320;0.360;2023-08-06T10:12:50;17.30;99.90
42617;DHT22;28250;52.320;0.360;2023-08-06T10:15:24;17.20;99.90
42617;DHT22;28250;52.320;0.360;2023-08-06T10:17:54;17.30;99.90
42617;DHT22;28250;52.320;0.360;2023-08-06T10:20:22;17.30;99.90
42617;DHT22;28250;52.320;0.360;2023-08-06T10:23:02;17.60;99.90
42617;DHT22;28250;52.320;0.360;2023-08-06T10:25:34;17.90;99.90
42617;DHT22;28250;52.320;0.360;2023-08-06T10:28:07;17.30;99.90
42617;DHT22;28250;52.320;0.360;2023-08-06T10:30:41;17.60;99.90
42617;DHT22;28250;52.320;0.360;2023-08-06T10:33:09;17.60;99.90
42617;DHT22;28250;52.320;0.360;2023-08-06T10:35:42;17.40;99.90
42617;DHT22;28250;52.320;0.360;2023-08-06T10:38:21;17.20;99.90
42617;DHT22;28250;52.320;0.360;2023-08-06T10:43:37;17.00;99.90
42617;DHT22;28250;52.320;0.360;2023-08-06T10:46:10;17.00;99.90
42617;DHT22;28250;52.320;0.360;2023-08-06T10:48:41;17.90;99.90
42617;DHT22;28250;52.320;0.360;2023-08-06T10:51:09;17.30;99.90
42617;DHT22;28250;52.320;0.360;2023-08-06T10:53:36;17.70;99.90
42617;DHT22;28250;52.320;0.360;2023-08-06T10:56:16;18.10;99.90
42617;DHT22;28250;52.320;0.360;2023-08-06T10:58:44;18.30;99.90
42617;DHT22;28250;52.320;0.360;2023-08-06T11:01:11;17.10;99.90
42617;DHT22;28250;52.320;0.360;2023-08-06T11:03:38;16.80;99.90
42617;DHT22;28250;52.320;0.360;2023-08-06T11:06:07;17.30;99.90
42617;DHT22;28250;52.320;0.360;2023-08-06T11:08:35;18.20;99.90
42617;DHT22;28250;52.320;0.360;2023-08-06T11:11:10;19.10;99.90
42617;DHT22;28250;52.320;0.360;2023-08-06T11:13:40;19.10;99.90
42617;DHT22;28250;52.320;0.360;2023-08-06T11:16:07;19.10;99.90
42617;DHT22;28250;52.320;0.360;2023-08-06T11:18:33;19.90;99.90
42617;DHT22;28250;52.320;0.360;2023-08-06T11:21:00;18.80;99.90
42617;DHT22;28250;52.320;0.360;2023-08-06T11:23:29;18.80;99.90
42617;DHT22;28250;52.320;0.360;2023-08-06T11:25:57;19.50;99.90
42617;DHT22;28250;52.320;0.360;2023-08-06T11:28:24;19.00;99.90
42617;DHT22;28250;52.320;0.360;2023-08-06T11:30:50;19.40;99.90
42617;DHT22;28250;52.320;0.360;2023-08-06T11:33:26;19.30;99.90
42617;DHT22;28250;52.320;0.360;2023-08-06T11:35:55;19.10;99.90
42617;DHT22;28250;52.320;0.360;2023-08-06T11:38:25;19.60;99.90
42617;DHT22;28250;52.320;0.360;2023-08-06T11:40:52;20.30;99.90
42617;DHT22;28250;52.320;0.360;2023-08-06T11:43:20;19.30;99.90
42617;DHT22;28250;52.320;0.360;2023-08-06T11:45:48;19.30;99.90
42617;DHT22;28250;52.320;0.360;2023-08-06T11:48:16;20.20;99.90
42617;DHT22;28250;52.320;0.360;2023-08-06T11:50:43;20.10;99.90
42617;DHT22;28250;52.320;0.360;2023-08-06T11:53:12;20.40;99.90
42617;DHT22;28250;52.320;0.360;2023-08-06T11:55:42;20.20;99.90
42617;DHT22;28250;52.320;0.360;2023-08-06T11:58:09;19.40;99.90
42617;DHT22;28250;52.320;0.360;2023-08-06T12:00:37;19.40;99.90
42617;DHT22;28250;52.320;0.360;2023-08-06T12:03:04;19.30;99.90
42617;DHT22;28250;52.320;0.360;2023-08-06T12:05:31;19.90;99.90
42617;DHT22;28250;52.320;0.360;2023-08-06T12:08:02;19.70;99.90
42617;DHT22;28250;52.320;0.360;2023-08-06T12:10:31;19.00;99.90
42617;DHT22;28250;52.320;0.360;2023-08-06T12:12:58;19.80;99.90
42617;DHT22;28250;52.320;0.360;2023-08-06T12:15:24;19.30;99.90
42617;DHT22;28250;52.320;0.360;2023-08-06T12:17:50;18.70;99.90
42617;DHT22;28250;52.320;0.360;2023-08-06T12:20:16;18.90;99.90
42617;DHT22;28250;52.320;0.360;2023-08-06T12:22:42;18.90;99.90
42617;DHT22;28250;52.320;0.360;2023-08-06T12:25:10;19.30;99.90
42617;DHT22;28250;52.320;0.360;2023-08-06T12:27:39;19.60;99.90
42617;DHT22;28250;52.320;0.360;2023-08-06T12:30:09;19.30;99.90
42617;DHT22;28250;52.320;0.360;2023-08-06T12:32:37;19.60;99.90
42617;DHT22;28250;52.320;0.360;2023-08-06T12:35:03;20.70;99.90
42617;DHT22;28250;52.320;0.360;2023-08-06T12:37:31;20.60;99.90
42617;DHT22;28250;52.320;0.360;2023-08-06T12:39:57;20.10;99.90
42617;DHT22;28250;52.320;0.360;2023-08-06T12:42:23;19.30;99.90
42617;DHT22;28250;52.320;0.360;2023-08-06T12:44:50;19.00;99.90
42617;DHT22;28250;52.320;0.360;2023-08-06T12:47:17;18.80;99.90
42617;DHT22;28250;52.320;0.360;2023-08-06T12:49:43;18.40;99.90
42617;DHT22;28250;52.320;0.360;2023-08-06T12:52:09;18.50;99.90
42617;DHT22;28250;52.320;0.360;2023-08-06T12:54:35;19.30;99.90
42617;DHT22;28250;52.320;0.360;2023-08-06T12:57:05;20.80;99.90
42617;DHT22;28250;52.320;0.360;2023-08-06T12:59:31;20.70;99.90
42617;DHT22;28250;52.320;0.360;2023-08-06T13:01:59;19.90;99.90
42617;DHT22;28250;52.320;0.360;2023-08-06T13:04:25;19.10;99.90
42617;DHT22;28250;52.320;0.360;2023-08-06T13:06:51;19.30;99.90
42617;DHT22;28250;52.320;0.360;2023-08-06T13:09:18;19.50;99.90
42617;DHT22;28250;52.320;0.360;2023-08-06T13:11:44;20.00;99.90
42617;DHT22;28250;52.320;0.360;2023-08-06T13:14:12;19.30;99.90
42617;DHT22;28250;52.320;0.360;2023-08-06T13:16:40;18.90;99.90
42617;DHT22;28250;52.320;0.360;2023-08-06T13:19:07;18.60;99.90
42617;DHT22;28250;52.320;0.360;2023-08-06T13:24:15;18.70;99.90
42617;DHT22;28250;52.320;0.360;2023-08-06T13:26:41;18.70;99.90
42617;DHT22;28250;52.320;0.360;2023-08-06T13:29:07;18.90;99.90
42617;DHT22;28250;52.320;0.360;2023-08-06T13:31:33;18.80;99.90
42617;DHT22;28250;52.320;0.360;2023-08-06T13:33:59;18.50;99.90
42617;DHT22;28250;52.320;0.360;2023-08-06T13:36:29;18.10;99.90
42617;DHT22;28250;52.320;0.360;2023-08-06T13:38:56;17.90;99.90
42617;DHT22;28250;52.320;0.360;2023-08-06T13:41:22;18.40;99.90
42617;DHT22;28250;52.320;0.360;2023-08-06T13:43:49;19.30;99.90
42617;DHT22;28250;52.320;0.360;2023-08-06T13:46:17;19.50;99.90
42617;DHT22;28250;52.320;0.360;2023-08-06T13:48:45;19.90;99.90
42617;DHT22;28250;52.320;0.360;2023-08-06T13:51:13;20.20;99.90
42617;DHT22;28250;52.320;0.360;2023-08-06T13:53:40;20.70;99.90
42617;DHT22;28250;52.320;0.360;2023-08-06T13:56:08;20.50;99.90
42617;DHT22;28250;52.320;0.360;2023-08-06T13:58:38;20.60;99.90
42617;DHT22;28250;52.320;0.360;2023-08-06T14:01:04;21.00;99.90
42617;DHT22;28250;52.320;0.360;2023-08-06T14:03:30;20.80;99.90
42617;DHT22;28250;52.320;0.360;2023-08-06T14:05:56;20.80;99.90
42617;DHT22;28250;52.320;0.360;2023-08-06T14:08:23;20.70;99.90
42617;DHT22;28250;52.320;0.360;2023-08-06T14:10:51;21.00;99.90
42617;DHT22;28250;52.320;0.360;2023-08-06T14:13:17;21.80;99.90
42617;DHT22;28250;52.320;0.360;2023-08-06T14:15:44;21.40;99.90
42617;DHT22;28250;52.320;0.360;2023-08-06T14:18:13;20.50;99.90
42617;DHT22;28250;52.320;0.360;2023-08-06T14:20:40;21.40;99.90
42617;DHT22;28250;52.320;0.360;2023-08-06T14:23:07;21.60;99.90
42617;DHT22;28250;52.320;0.360;2023-08-06T14:25:33;22.80;99.90
42617;DHT22;28250;52.320;0.360;2023-08-06T14:27:59;23.20;99.90
42617;DHT22;28250;52.320;0.360;2023-08-06T14:30:25;22.30;99.90
42617;DHT22;28250;52.320;0.360;2023-08-06T14:32:51;22.20;99.90
42617;DHT22;28250;52.320;0.360;2023-08-06T14:35:17;21.50;99.90
42617;DHT22;28250;52.320;0.360;2023-08-06T14:37:43;20.90;99.90
42617;DHT22;28250;52.320;0.360;2023-08-06T14:40:11;20.50;99.90
42617;DHT22;28250;52.320;0.360;2023-08-06T14:42:37;19.80;99.90
42617;DHT22;28250;52.320;0.360;2023-08-06T14:45:04;20.10;99.90
42617;DHT22;28250;52.320;0.360;2023-08-06T14:47:30;20.00;99.90
42617;DHT22;28250;52.320;0.360;2023-08-06T14:49:56;20.30;99.90
42617;DHT22;28250;52.320;0.360;2023-08-06T14:52:22;20.10;99.90
42617;DHT22;28250;52.320;0.360;2023-08-06T14:54:48;20.10;99.90
42617;DHT22;28250;52.320;0.360;2023-08-06T14:57:18;20.00;99.90
42617;DHT22;28250;52.320;0.360;2023-08-06T14:59:44;20.60;99.90
42617;DHT22;28250;52.320;0.360;2023-08-06T15:02:10;20.30;99.90
42617;DHT22;28250;52.320;0.360;2023-08-06T15:04:36;20.90;99.90
42617;DHT22;28250;52.320;0.360;2023-08-06T15:07:02;20.60;99.90
42617;DHT22;28250;52.320;0.360;2023-08-06T15:09:29;20.60;99.90
42617;DHT22;28250;52.320;0.360;2023-08-06T15:11:55;19.80;99.90
42617;DHT22;28250;52.320;0.360;2023-08-06T15:14:21;19.40;99.90
42617;DHT22;28250;52.320;0.360;2023-08-06T15:16:47;19.10;99.90
42617;DHT22;28250;52.320;0.360;2023-08-06T15:19:14;18.70;99.90
42617;DHT22;28250;52.320;0.360;2023-08-06T15:21:40;19.00;99.90
42617;DHT22;28250;52.320;0.360;2023-08-06T15:24:06;19.00;99.90
42617;DHT22;28250;52.320;0.360;2023-08-06T15:26:32;18.90;99.90
42617;DHT22;28250;52.320;0.360;2023-08-06T15:28:59;18.90;99.90
42617;DHT22;28250;52.320;0.360;2023-08-06T15:31:38;18.80;99.90
42617;DHT22;28250;52.320;0.360;2023-08-06T15:34:06;18.40;99.90
42617;DHT22;28250;52.320;0.360;2023-08-06T15:36:33;18.40;99.90
42617;DHT22;28250;52.320;0.360;2023-08-06T15:39:00;18.60;99.90
42617;DHT22;28250;52.320;0.360;2023-08-06T15:41:27;18.70;99.90
42617;DHT22;28250;52.320;0.360;2023-08-06T15:43:53;18.80;99.90
42617;DHT22;28250;52.320;0.360;2023-08-06T15:46:19;18.60;99.90
42617;DHT22;28250;52.320;0.360;2023-08-06T15:48:45;18.70;99.90
42617;DHT22;28250;52.320;0.360;2023-08-06T15:51:11;18.70;99.90